createdAt,value
2023-05-19T00:00:37.229Z,11.60
2023-05-19T00:01:39.335Z,11.60
2023-05-19T00:02:41.860Z,11.60
2023-05-19T00:03:55.095Z,11.50
2023-05-19T00:04:58.281Z,11.60
2023-05-19T00:06:02.566Z,11.70
2023-05-19T00:07:05.683Z,11.70
2023-05-19T00:08:10.658Z,11.60
2023-05-19T00:09:12.769Z,11.60
2023-05-19T00:10:15.638Z,11.50
2023-05-19T00:11:17.695Z,11.50
2023-05-19T00:12:19.728Z,11.50
2023-05-19T00:13:22.444Z,11.50
2023-05-19T00:14:24.499Z,11.50
2023-05-19T00:15:26.694Z,11.40
2023-05-19T00:16:30.125Z,11.50
2023-05-19T00:17:34.362Z,11.40
2023-05-19T00:18:36.258Z,11.50
2023-05-19T00:19:38.237Z,11.50
2023-05-19T00:20:40.310Z,11.50
2023-05-19T00:21:42.212Z,11.50
2023-05-19T00:22:46.918Z,11.50
2023-05-19T00:23:49.102Z,11.50
2023-05-19T00:24:50.953Z,11.50
2023-05-19T00:25:54.157Z,11.50
2023-05-19T00:26:56.008Z,11.50
2023-05-19T00:27:59.239Z,11.50
2023-05-19T00:29:01.068Z,11.60
2023-05-19T00:30:03.039Z,11.50
2023-05-19T00:31:08.018Z,11.50
2023-05-19T00:32:10.388Z,11.50
2023-05-19T00:33:12.559Z,11.50
2023-05-19T00:34:14.509Z,11.60
2023-05-19T00:35:16.777Z,11.50
2023-05-19T00:36:18.684Z,11.40
2023-05-19T00:37:20.721Z,11.40
2023-05-19T00:38:22.569Z,11.40
2023-05-19T00:39:24.352Z,11.40
2023-05-19T00:40:27.148Z,11.30
2023-05-19T00:41:29.515Z,11.30
2023-05-19T00:42:32.729Z,11.30
2023-05-19T00:43:34.774Z,11.30
2023-05-19T00:44:41.090Z,11.30
2023-05-19T00:45:43.001Z,11.30
2023-05-19T00:46:45.037Z,11.20
2023-05-19T00:47:46.972Z,11.20
2023-05-19T00:48:48.837Z,11.20
2023-05-19T00:49:50.709Z,11.20
2023-05-19T00:50:55.886Z,11.20
2023-05-19T00:51:59.452Z,11.20
2023-05-19T00:53:01.401Z,11.10
2023-05-19T00:54:03.582Z,11.10
2023-05-19T00:55:06.197Z,11.10
2023-05-19T00:56:08.091Z,11.00
2023-05-19T00:57:10.087Z,11.00
2023-05-19T00:58:12.924Z,11.00
2023-05-19T00:59:14.763Z,11.00
2023-05-19T01:00:16.837Z,10.90
2023-05-19T01:01:19.425Z,10.90
2023-05-19T01:02:21.883Z,10.90
2023-05-19T01:03:24.169Z,10.90
2023-05-19T01:04:26.534Z,11.00
2023-05-19T01:05:28.462Z,10.90
2023-05-19T01:06:30.304Z,10.90
2023-05-19T01:07:32.184Z,10.90
2023-05-19T01:08:35.674Z,10.90
2023-05-19T01:09:37.573Z,10.90
2023-05-19T01:10:39.412Z,10.90
2023-05-19T01:11:41.265Z,10.90
2023-05-19T01:12:43.439Z,10.90
2023-05-19T01:13:45.753Z,10.90
2023-05-19T01:14:47.733Z,10.90
2023-05-19T01:16:07.035Z,10.90
2023-05-19T01:17:23.673Z,10.90
2023-05-19T01:18:57.362Z,10.80
2023-05-19T01:20:22.735Z,10.80
2023-05-19T01:22:14.647Z,10.80
2023-05-19T01:23:57.016Z,10.80
2023-05-19T01:25:32.962Z,10.80
2023-05-19T01:27:01.059Z,10.80
2023-05-19T01:28:31.308Z,10.80
2023-05-19T01:29:35.956Z,10.80
2023-05-19T01:30:40.901Z,10.80
2023-05-19T01:31:45.120Z,10.80
2023-05-19T01:32:48.799Z,10.80
2023-05-19T01:33:53.405Z,10.70
2023-05-19T01:34:57.130Z,10.70
2023-05-19T01:36:00.042Z,10.70
2023-05-19T01:37:02.899Z,10.70
2023-05-19T01:38:07.926Z,10.70
2023-05-19T01:39:09.907Z,10.70
2023-05-19T01:40:12.263Z,10.70
2023-05-19T01:41:15.856Z,10.70
2023-05-19T01:42:18.060Z,10.60
2023-05-19T01:43:23.953Z,10.60
2023-05-19T01:44:25.940Z,10.60
2023-05-19T01:45:33.380Z,10.60
2023-05-19T01:46:35.839Z,10.60
2023-05-19T01:47:42.360Z,10.60
2023-05-19T01:48:45.675Z,10.60
2023-05-19T01:49:47.510Z,10.60
2023-05-19T01:50:49.591Z,10.60
2023-05-19T01:51:52.729Z,10.60
2023-05-19T01:52:55.268Z,10.60
2023-05-19T01:53:57.558Z,10.60
2023-05-19T01:54:59.536Z,10.60
2023-05-19T01:56:01.451Z,10.60
2023-05-19T01:57:25.818Z,10.70
2023-05-19T01:58:46.871Z,10.70
2023-05-19T02:00:13.251Z,10.70
2023-05-19T02:01:53.251Z,10.70
2023-05-19T02:03:32.885Z,10.70
2023-05-19T02:04:44.282Z,10.70
2023-05-19T02:05:56.092Z,10.60
2023-05-19T02:06:57.898Z,10.60
2023-05-19T02:08:42.286Z,10.60
2023-05-19T02:10:07.014Z,10.60
2023-05-19T02:11:26.030Z,10.60
2023-05-19T02:12:40.127Z,10.60
2023-05-19T02:13:46.797Z,10.60
2023-05-19T02:14:51.121Z,10.60
2023-05-19T02:15:55.257Z,10.60
2023-05-19T02:16:58.827Z,10.60
2023-05-19T02:18:04.725Z,10.60
2023-05-19T02:19:06.665Z,10.60
2023-05-19T02:20:09.474Z,10.60
2023-05-19T02:21:13.477Z,10.60
2023-05-19T02:22:15.488Z,10.60
2023-05-19T02:23:17.262Z,10.60
2023-05-19T02:24:23.145Z,10.70
2023-05-19T02:25:25.022Z,10.70
2023-05-19T02:26:26.993Z,10.60
2023-05-19T02:27:30.128Z,10.60
2023-05-19T02:28:31.904Z,10.60
2023-05-19T02:29:33.750Z,10.60
2023-05-19T02:30:35.615Z,10.60
2023-05-19T02:31:37.669Z,10.60
2023-05-19T02:32:40.058Z,10.60
2023-05-19T02:33:43.084Z,10.60
2023-05-19T02:34:45.670Z,10.60
2023-05-19T02:35:47.645Z,10.60
2023-05-19T02:36:50.055Z,10.60
2023-05-19T02:37:51.920Z,10.60
2023-05-19T02:38:53.810Z,10.60
2023-05-19T02:39:55.937Z,10.60
2023-05-19T02:40:57.845Z,10.60
2023-05-19T02:41:59.690Z,10.70
2023-05-19T02:43:01.878Z,10.60
2023-05-19T02:44:03.955Z,10.60
2023-05-19T02:45:06.446Z,10.50
2023-05-19T02:46:08.332Z,10.60
2023-05-19T02:47:11.164Z,10.60
2023-05-19T02:48:12.991Z,10.60
2023-05-19T02:49:15.098Z,10.50
2023-05-19T02:50:17.017Z,10.60
2023-05-19T02:51:18.889Z,10.50
2023-05-19T02:52:20.698Z,10.40
2023-05-19T02:53:22.543Z,10.40
2023-05-19T02:54:24.420Z,10.40
2023-05-19T02:55:26.770Z,10.50
2023-05-19T02:56:28.763Z,10.40
2023-05-19T02:57:31.847Z,10.40
2023-05-19T02:58:33.757Z,10.30
2023-05-19T02:59:35.683Z,10.30
2023-05-19T03:00:37.559Z,10.40
2023-05-19T03:01:40.461Z,10.30
2023-05-19T03:02:44.367Z,10.30
2023-05-19T03:03:46.435Z,10.30
2023-05-19T03:04:48.448Z,10.30
2023-05-19T03:05:50.361Z,10.30
2023-05-19T03:06:52.430Z,10.30
2023-05-19T03:07:54.388Z,10.30
2023-05-19T03:08:56.214Z,10.30
2023-05-19T03:09:58.041Z,10.30
2023-05-19T03:10:59.882Z,10.30
2023-05-19T03:12:04.060Z,10.30
2023-05-19T03:13:06.205Z,10.30
2023-05-19T03:14:12.260Z,10.30
2023-05-19T03:15:15.101Z,10.30
2023-05-19T03:16:16.898Z,10.30
2023-05-19T03:17:18.747Z,10.20
2023-05-19T03:18:20.537Z,10.20
2023-05-19T03:19:22.540Z,10.20
2023-05-19T03:20:24.650Z,10.20
2023-05-19T03:21:26.614Z,10.20
2023-05-19T03:22:28.449Z,10.30
2023-05-19T03:23:30.223Z,10.30
2023-05-19T03:24:32.761Z,10.30
2023-05-19T03:25:34.498Z,10.20
2023-05-19T03:26:36.261Z,10.30
2023-05-19T03:27:38.077Z,10.10
2023-05-19T03:28:39.909Z,10.10
2023-05-19T03:29:41.832Z,10.20
2023-05-19T03:30:43.634Z,10.10
2023-05-19T03:31:45.544Z,10.10
2023-05-19T03:32:47.519Z,10.20
2023-05-19T03:33:49.490Z,10.20
2023-05-19T03:34:51.454Z,10.10
2023-05-19T03:35:53.510Z,10.10
2023-05-19T03:36:55.425Z,10.10
2023-05-19T03:37:57.186Z,10.00
2023-05-19T03:38:59.395Z,10.00
2023-05-19T03:40:01.290Z,10.00
2023-05-19T03:41:03.252Z,9.90
2023-05-19T03:42:05.405Z,9.90
2023-05-19T03:43:07.898Z,9.90
2023-05-19T03:44:09.757Z,9.90
2023-05-19T03:45:11.694Z,9.90
2023-05-19T03:46:13.519Z,9.80
2023-05-19T03:47:15.983Z,9.80
2023-05-19T03:48:19.731Z,9.80
2023-05-19T03:49:23.164Z,9.80
2023-05-19T03:50:25.092Z,9.80
2023-05-19T03:51:28.662Z,9.80
2023-05-19T03:52:30.567Z,9.80
2023-05-19T03:53:32.327Z,9.80
2023-05-19T03:54:34.263Z,9.80
2023-05-19T03:55:37.459Z,9.80
2023-05-19T03:56:40.161Z,9.80
2023-05-19T03:57:43.373Z,9.80
2023-05-19T03:58:47.002Z,9.80
2023-05-19T03:59:49.019Z,9.90
2023-05-19T04:00:51.141Z,9.70
2023-05-19T04:01:53.130Z,9.80
2023-05-19T04:02:55.150Z,9.70
2023-05-19T04:03:56.944Z,9.70
2023-05-19T04:04:58.745Z,9.70
2023-05-19T04:06:00.712Z,9.60
2023-05-19T04:07:02.599Z,9.70
2023-05-19T04:08:04.491Z,9.60
2023-05-19T04:09:12.785Z,9.60
2023-05-19T04:10:14.638Z,9.60
2023-05-19T04:11:16.577Z,9.70
2023-05-19T04:12:18.433Z,9.60
2023-05-19T04:13:21.191Z,9.60
2023-05-19T04:14:23.688Z,9.60
2023-05-19T04:15:26.035Z,9.60
2023-05-19T04:16:27.975Z,9.50
2023-05-19T04:17:30.053Z,9.50
2023-05-19T04:18:31.941Z,9.50
2023-05-19T04:19:33.841Z,9.50
2023-05-19T04:20:35.709Z,9.50
2023-05-19T04:21:37.673Z,9.50
2023-05-19T04:22:39.464Z,9.60
2023-05-19T04:23:41.700Z,9.60
2023-05-19T04:24:43.802Z,9.60
2023-05-19T04:25:49.089Z,9.60
2023-05-19T04:26:52.199Z,9.60
2023-05-19T04:27:57.655Z,9.70
2023-05-19T04:28:59.437Z,9.70
2023-05-19T04:30:01.302Z,9.70
2023-05-19T04:31:03.726Z,9.80
2023-05-19T04:32:07.917Z,9.80
2023-05-19T04:33:09.804Z,9.80
2023-05-19T04:34:11.879Z,9.80
2023-05-19T04:35:13.911Z,9.80
2023-05-19T04:36:18.432Z,9.80
2023-05-19T04:37:20.457Z,9.80
2023-05-19T04:38:22.338Z,9.70
2023-05-19T04:39:24.290Z,9.80
2023-05-19T04:40:26.105Z,9.80
2023-05-19T04:41:28.143Z,9.80
2023-05-19T04:42:30.830Z,9.80
2023-05-19T04:43:32.831Z,9.80
2023-05-19T04:44:34.715Z,9.80
2023-05-19T04:45:37.779Z,9.80
2023-05-19T04:46:39.941Z,9.80
2023-05-19T04:47:42.390Z,9.80
2023-05-19T04:48:45.157Z,9.80
2023-05-19T04:49:47.251Z,9.80
2023-05-19T04:50:49.554Z,9.80
2023-05-19T04:51:54.900Z,9.90
2023-05-19T04:52:59.207Z,9.90
2023-05-19T04:54:01.499Z,9.90
2023-05-19T04:55:04.078Z,9.90
2023-05-19T04:56:06.591Z,10.00
2023-05-19T04:57:08.552Z,10.00
2023-05-19T04:58:10.816Z,10.00
2023-05-19T04:59:12.664Z,10.10
2023-05-19T05:00:15.478Z,10.10
2023-05-19T05:01:17.284Z,10.10
2023-05-19T05:02:19.262Z,10.20
2023-05-19T05:03:22.968Z,10.20
2023-05-19T05:04:25.016Z,10.20
2023-05-19T05:05:26.949Z,10.30
2023-05-19T05:06:28.778Z,10.30
2023-05-19T05:07:32.353Z,10.30
2023-05-19T05:08:34.924Z,10.30
2023-05-19T05:09:36.806Z,10.40
2023-05-19T05:10:38.708Z,10.40
2023-05-19T05:11:41.215Z,10.50
2023-05-19T05:12:43.889Z,10.50
2023-05-19T05:13:45.968Z,10.40
2023-05-19T05:14:48.301Z,10.60
2023-05-19T05:15:52.154Z,10.60
2023-05-19T05:16:54.426Z,10.60
2023-05-19T05:17:56.928Z,10.60
2023-05-19T05:18:59.287Z,10.60
2023-05-19T05:20:03.268Z,10.70
2023-05-19T05:21:06.245Z,10.70
2023-05-19T05:22:08.401Z,10.70
2023-05-19T05:23:14.532Z,10.80
2023-05-19T05:24:16.902Z,10.80
2023-05-19T05:25:19.255Z,10.80
2023-05-19T05:26:23.297Z,10.90
2023-05-19T05:27:26.131Z,10.90
2023-05-19T05:28:27.981Z,10.90
2023-05-19T05:29:29.818Z,11.00
2023-05-19T05:30:32.430Z,11.00
2023-05-19T05:31:34.231Z,11.10
2023-05-19T05:32:36.439Z,11.10
2023-05-19T05:33:39.164Z,11.10
2023-05-19T05:34:41.962Z,11.10
2023-05-19T05:35:43.948Z,11.20
2023-05-19T05:36:45.805Z,11.20
2023-05-19T05:37:47.570Z,11.20
2023-05-19T05:38:49.643Z,11.20
2023-05-19T05:39:51.428Z,11.20
2023-05-19T05:40:53.276Z,11.30
2023-05-19T05:41:55.488Z,11.30
2023-05-19T05:42:59.078Z,11.30
2023-05-19T05:44:02.063Z,11.40
2023-05-19T05:45:04.152Z,11.40
2023-05-19T05:46:06.115Z,11.50
2023-05-19T05:47:08.655Z,11.50
2023-05-19T05:48:11.144Z,11.50
2023-05-19T05:49:13.980Z,11.50
2023-05-19T05:50:16.517Z,11.50
2023-05-19T05:51:21.163Z,11.50
2023-05-19T05:52:26.058Z,11.60
2023-05-19T05:53:32.184Z,11.60
2023-05-19T05:54:34.627Z,11.60
2023-05-19T05:55:36.717Z,11.60
2023-05-19T05:56:39.127Z,11.60
2023-05-19T05:57:41.985Z,11.60
2023-05-19T05:58:44.122Z,11.70
2023-05-19T05:59:47.215Z,11.70
2023-05-19T06:00:49.472Z,11.80
2023-05-19T06:01:51.335Z,11.80
2023-05-19T06:02:53.253Z,11.90
2023-05-19T06:03:55.123Z,12.00
2023-05-19T06:04:57.117Z,12.10
2023-05-19T06:05:59.111Z,12.10
2023-05-19T06:07:01.834Z,12.20
2023-05-19T06:08:04.365Z,12.20
2023-05-19T06:09:06.268Z,12.20
2023-05-19T06:10:10.013Z,12.30
2023-05-19T06:11:11.856Z,12.40
2023-05-19T06:12:13.674Z,12.40
2023-05-19T06:13:18.849Z,12.50
2023-05-19T06:14:20.651Z,12.50
2023-05-19T06:15:23.290Z,12.60
2023-05-19T06:16:25.149Z,12.60
2023-05-19T06:17:27.092Z,12.70
2023-05-19T06:18:29.229Z,12.80
2023-05-19T06:19:31.872Z,12.80
2023-05-19T06:20:33.921Z,12.90
2023-05-19T06:21:35.995Z,12.90
2023-05-19T06:22:37.920Z,13.00
2023-05-19T06:23:40.810Z,13.00
2023-05-19T06:24:42.559Z,13.00
2023-05-19T06:25:44.393Z,13.00
2023-05-19T06:26:46.293Z,13.00
2023-05-19T06:27:48.162Z,13.10
2023-05-19T06:28:50.145Z,13.10
2023-05-19T06:29:52.047Z,13.20
2023-05-19T06:30:53.874Z,13.30
2023-05-19T06:31:56.617Z,13.30
2023-05-19T06:32:58.806Z,13.40
2023-05-19T06:34:00.662Z,13.50
2023-05-19T06:35:02.446Z,13.50
2023-05-19T06:36:04.781Z,13.50
2023-05-19T06:37:06.721Z,13.60
2023-05-19T06:38:08.598Z,13.60
2023-05-19T06:39:10.493Z,13.60
2023-05-19T06:40:12.964Z,13.60
2023-05-19T06:41:14.719Z,13.60
2023-05-19T06:42:16.978Z,13.60
2023-05-19T06:43:18.818Z,13.60
2023-05-19T06:44:21.217Z,13.60
2023-05-19T06:45:24.034Z,13.50
2023-05-19T06:46:25.921Z,13.50
2023-05-19T06:47:27.729Z,13.50
2023-05-19T06:48:29.674Z,13.50
2023-05-19T06:49:31.549Z,13.50
2023-05-19T06:50:33.510Z,13.60
2023-05-19T06:51:35.895Z,13.60
2023-05-19T06:52:38.025Z,13.60
2023-05-19T06:53:39.913Z,13.60
2023-05-19T06:54:41.749Z,13.60
2023-05-19T06:55:57.560Z,13.70
2023-05-19T06:57:00.925Z,13.70
2023-05-19T06:58:02.733Z,13.70
2023-05-19T06:59:04.701Z,13.70
2023-05-19T07:00:10.451Z,13.80
2023-05-19T07:01:12.254Z,13.80
2023-05-19T07:02:14.259Z,13.80
2023-05-19T07:03:16.429Z,13.80
2023-05-19T07:04:18.390Z,13.80
2023-05-19T07:05:20.531Z,13.80
2023-05-19T07:06:22.648Z,13.80
2023-05-19T07:07:24.963Z,13.80
2023-05-19T07:08:27.925Z,13.80
2023-05-19T07:09:29.794Z,13.90
2023-05-19T07:10:31.801Z,13.90
2023-05-19T07:11:33.734Z,14.00
2023-05-19T07:12:35.596Z,13.90
2023-05-19T07:13:37.431Z,13.90
2023-05-19T07:14:39.504Z,14.00
2023-05-19T07:15:41.273Z,14.00
2023-05-19T07:16:43.179Z,14.00
2023-05-19T07:17:45.327Z,14.00
2023-05-19T07:18:47.308Z,14.00
2023-05-19T07:19:49.183Z,14.00
2023-05-19T07:20:53.440Z,13.90
2023-05-19T07:21:57.011Z,14.00
2023-05-19T07:22:58.764Z,14.00
2023-05-19T07:24:00.646Z,14.00
2023-05-19T07:25:02.439Z,14.00
2023-05-19T07:26:04.422Z,14.00
2023-05-19T07:27:06.244Z,14.00
2023-05-19T07:28:08.067Z,14.00
2023-05-19T07:29:10.011Z,14.00
2023-05-19T07:30:12.358Z,14.10
2023-05-19T07:31:14.256Z,14.10
2023-05-19T07:32:16.244Z,14.10
2023-05-19T07:33:18.300Z,14.10
2023-05-19T07:34:21.949Z,14.10
2023-05-19T07:35:23.967Z,14.10
2023-05-19T07:36:25.990Z,14.10
2023-05-19T07:37:27.800Z,14.10
2023-05-19T07:38:31.487Z,14.10
2023-05-19T07:39:35.054Z,14.10
2023-05-19T07:40:36.872Z,14.20
2023-05-19T07:41:38.779Z,14.20
2023-05-19T07:42:41.298Z,14.30
2023-05-19T07:43:43.160Z,14.30
2023-05-19T07:44:45.083Z,14.30
2023-05-19T07:45:46.957Z,14.40
2023-05-19T07:46:48.812Z,14.40
2023-05-19T07:47:50.722Z,14.40
2023-05-19T07:48:52.563Z,14.40
2023-05-19T07:49:54.358Z,14.30
2023-05-19T07:50:56.386Z,14.30
2023-05-19T07:51:58.289Z,14.30
2023-05-19T07:53:00.117Z,14.30
2023-05-19T07:54:02.322Z,14.30
2023-05-19T07:55:04.392Z,14.20
2023-05-19T07:56:06.623Z,14.20
2023-05-19T07:57:08.666Z,14.20
2023-05-19T07:58:10.658Z,14.20
2023-05-19T07:59:13.330Z,14.10
2023-05-19T08:00:15.629Z,14.20
2023-05-19T08:01:17.432Z,14.20
2023-05-19T08:02:19.292Z,14.20
2023-05-19T08:03:23.366Z,14.20
2023-05-19T08:04:25.984Z,14.20
2023-05-19T08:05:27.923Z,14.10
2023-05-19T08:06:30.153Z,14.10
2023-05-19T08:07:31.968Z,14.10
2023-05-19T08:08:34.069Z,14.20
2023-05-19T08:09:36.118Z,14.20
2023-05-19T08:10:38.145Z,14.20
2023-05-19T08:11:40.118Z,14.20
2023-05-19T08:12:42.324Z,14.20
2023-05-19T08:13:44.140Z,14.20
2023-05-19T08:14:46.082Z,14.30
2023-05-19T08:15:48.191Z,14.20
2023-05-19T08:16:50.431Z,14.20
2023-05-19T08:17:52.606Z,14.20
2023-05-19T08:18:55.206Z,14.20
2023-05-19T08:19:57.234Z,14.20
2023-05-19T08:20:59.423Z,14.20
2023-05-19T08:22:01.423Z,14.20
2023-05-19T08:23:03.467Z,14.20
2023-05-19T08:24:05.504Z,14.20
2023-05-19T08:25:07.537Z,14.20
2023-05-19T08:26:09.427Z,14.20
2023-05-19T08:27:11.262Z,14.20
2023-05-19T08:28:13.482Z,14.30
2023-05-19T08:29:16.039Z,14.30
2023-05-19T08:30:17.933Z,14.30
2023-05-19T08:31:20.023Z,14.40
2023-05-19T08:32:21.991Z,14.40
2023-05-19T08:33:23.990Z,14.60
2023-05-19T08:34:25.887Z,14.50
2023-05-19T08:35:27.695Z,14.50
2023-05-19T08:36:30.784Z,14.50
2023-05-19T08:37:34.132Z,14.50
2023-05-19T08:38:36.494Z,14.50
2023-05-19T08:39:38.372Z,14.50
2023-05-19T08:40:46.367Z,14.50
2023-05-19T08:41:48.259Z,14.50
2023-05-19T08:42:50.195Z,14.50
2023-05-19T08:43:52.134Z,14.50
2023-05-19T08:44:53.982Z,14.50
2023-05-19T08:45:55.937Z,14.50
2023-05-19T08:47:00.888Z,14.50
2023-05-19T08:48:04.313Z,14.50
2023-05-19T08:49:14.565Z,14.40
2023-05-19T08:50:24.958Z,14.50
2023-05-19T08:51:39.591Z,14.50
2023-05-19T08:53:03.093Z,14.50
2023-05-19T08:54:14.765Z,14.50
2023-05-19T08:55:28.906Z,14.50
2023-05-19T08:56:31.769Z,14.50
2023-05-19T08:57:34.180Z,14.50
2023-05-19T08:58:39.492Z,14.50
2023-05-19T08:59:43.189Z,14.50
2023-05-19T09:00:45.396Z,14.50
2023-05-19T09:01:47.731Z,14.50
2023-05-19T09:03:00.846Z,14.50
2023-05-19T09:04:13.475Z,14.60
2023-05-19T09:05:18.982Z,14.60
2023-05-19T09:06:21.409Z,14.60
2023-05-19T09:07:25.670Z,14.60
2023-05-19T09:08:27.799Z,14.70
2023-05-19T09:09:30.466Z,14.70
2023-05-19T09:10:32.329Z,14.70
2023-05-19T09:11:37.417Z,14.70
2023-05-19T09:12:39.263Z,14.70
2023-05-19T09:13:41.063Z,14.70
2023-05-19T09:14:43.083Z,14.70
2023-05-19T09:15:45.620Z,14.70
2023-05-19T09:16:51.145Z,14.70
2023-05-19T09:18:07.827Z,14.70
2023-05-19T09:19:15.636Z,14.80
2023-05-19T09:20:17.879Z,14.90
2023-05-19T09:21:19.837Z,14.90
2023-05-19T09:22:21.572Z,14.90
2023-05-19T09:23:24.917Z,14.90
2023-05-19T09:24:28.290Z,14.90
2023-05-19T09:25:30.165Z,14.90
2023-05-19T09:26:39.885Z,14.80
2023-05-19T09:27:41.741Z,14.80
2023-05-19T09:28:44.319Z,14.80
2023-05-19T09:29:48.595Z,14.80
2023-05-19T09:31:02.830Z,14.80
2023-05-19T09:32:05.216Z,14.80
2023-05-19T09:33:09.931Z,14.90
2023-05-19T09:34:15.050Z,14.90
2023-05-19T09:35:21.667Z,14.90
2023-05-19T09:36:23.532Z,14.90
2023-05-19T09:37:28.594Z,14.90
2023-05-19T09:38:30.428Z,14.90
2023-05-19T09:39:32.763Z,14.90
2023-05-19T09:40:34.692Z,14.90
2023-05-19T09:41:36.680Z,14.90
2023-05-19T09:42:39.295Z,14.90
2023-05-19T09:43:41.448Z,14.90
2023-05-19T09:44:43.687Z,14.90
2023-05-19T09:45:45.533Z,14.90
2023-05-19T09:46:54.508Z,15.00
2023-05-19T09:47:56.407Z,15.00
2023-05-19T09:49:01.436Z,15.00
2023-05-19T09:50:08.697Z,15.00
2023-05-19T09:51:11.148Z,15.00
2023-05-19T09:52:16.308Z,15.00
2023-05-19T09:53:18.582Z,15.00
2023-05-19T09:54:22.319Z,15.00
2023-05-19T09:55:28.797Z,15.00
2023-05-19T09:56:36.482Z,15.00
2023-05-19T09:57:40.140Z,15.00
2023-05-19T09:58:42.855Z,15.00
2023-05-19T09:59:45.732Z,15.00
2023-05-19T10:00:48.484Z,15.00
2023-05-19T10:01:50.904Z,15.00
2023-05-19T10:02:53.645Z,15.00
2023-05-19T10:03:56.633Z,15.10
2023-05-19T10:04:58.658Z,15.10
2023-05-19T10:06:09.272Z,15.10
2023-05-19T10:07:12.455Z,15.20
2023-05-19T10:08:17.980Z,15.20
2023-05-19T10:09:27.827Z,15.10
2023-05-19T10:10:31.246Z,15.10
2023-05-19T10:11:33.462Z,15.10
2023-05-19T10:12:36.039Z,15.00
2023-05-19T10:13:39.483Z,15.00
2023-05-19T10:14:41.895Z,15.00
2023-05-19T10:15:57.183Z,15.00
2023-05-19T10:17:00.711Z,15.00
2023-05-19T10:18:03.824Z,15.00
2023-05-19T10:19:07.582Z,15.00
2023-05-19T10:20:17.138Z,14.90
2023-05-19T10:21:19.047Z,14.90
2023-05-19T10:22:21.766Z,14.90
2023-05-19T10:23:24.110Z,15.00
2023-05-19T10:24:26.753Z,15.00
2023-05-19T10:25:29.857Z,15.00
2023-05-19T10:26:32.680Z,14.90
2023-05-19T10:27:37.497Z,15.00
2023-05-19T10:28:42.998Z,14.90
2023-05-19T10:29:49.893Z,15.00
2023-05-19T10:30:56.660Z,15.00
2023-05-19T10:32:04.895Z,15.00
2023-05-19T10:33:10.986Z,15.00
2023-05-19T10:34:25.896Z,15.00
2023-05-19T10:36:08.480Z,15.10
2023-05-19T10:37:29.288Z,15.20
2023-05-19T10:38:56.499Z,15.20
2023-05-19T10:39:59.013Z,15.20
2023-05-19T10:41:13.087Z,15.20
2023-05-19T10:42:32.692Z,15.20
2023-05-19T10:43:48.626Z,15.20
2023-05-19T10:45:05.809Z,15.30
2023-05-19T10:46:07.749Z,15.40
2023-05-19T10:47:12.246Z,15.50
2023-05-19T10:48:19.502Z,15.50
2023-05-19T10:49:22.654Z,15.50
2023-05-19T10:50:24.637Z,15.40
2023-05-19T10:51:32.403Z,15.40
2023-05-19T10:52:38.596Z,15.30
2023-05-19T10:53:46.448Z,15.30
2023-05-19T10:54:48.258Z,15.20
2023-05-19T10:55:56.365Z,15.20
2023-05-19T10:56:58.334Z,15.20
2023-05-19T10:58:00.574Z,15.20
2023-05-19T10:59:03.635Z,15.20
2023-05-19T11:00:29.236Z,15.20
2023-05-19T11:01:36.004Z,15.10
2023-05-19T11:02:44.183Z,15.20
2023-05-19T11:03:48.630Z,15.20
2023-05-19T11:04:58.620Z,15.20
2023-05-19T11:06:29.734Z,15.20
2023-05-19T11:07:31.670Z,15.20
2023-05-19T11:08:34.891Z,15.20
2023-05-19T11:09:43.293Z,15.30
2023-05-19T11:10:48.132Z,15.30
2023-05-19T11:11:53.863Z,15.30
2023-05-19T11:12:58.287Z,15.30
2023-05-19T11:14:01.332Z,15.30
2023-05-19T11:15:03.722Z,15.30
2023-05-19T11:16:09.355Z,15.30
2023-05-19T11:17:19.117Z,15.30
2023-05-19T11:18:21.489Z,15.30
2023-05-19T11:19:31.232Z,15.30
2023-05-19T11:20:35.061Z,15.30
2023-05-19T11:21:43.874Z,15.30
2023-05-19T11:23:03.607Z,15.30
2023-05-19T11:24:08.819Z,15.30
2023-05-19T11:25:10.785Z,15.20
2023-05-19T11:26:13.021Z,15.30
2023-05-19T11:27:24.405Z,15.20
2023-05-19T11:28:27.938Z,15.20
2023-05-19T11:29:32.973Z,15.10
2023-05-19T11:30:36.858Z,15.10
2023-05-19T11:31:39.787Z,15.20
2023-05-19T11:32:42.861Z,15.20
2023-05-19T11:33:45.442Z,15.20
2023-05-19T11:34:49.264Z,15.20
2023-05-19T11:35:51.491Z,15.20
2023-05-19T11:36:53.633Z,15.20
2023-05-19T11:37:56.236Z,15.30
2023-05-19T11:38:59.915Z,15.30
2023-05-19T11:40:02.882Z,15.20
2023-05-19T11:41:05.061Z,15.20
2023-05-19T11:42:09.061Z,15.20
2023-05-19T11:43:11.289Z,15.20
2023-05-19T11:44:13.163Z,15.20
2023-05-19T11:45:15.006Z,15.30
2023-05-19T11:46:17.005Z,15.20
2023-05-19T11:47:19.059Z,15.30
2023-05-19T11:48:21.956Z,15.30
2023-05-19T11:49:23.952Z,15.30
2023-05-19T11:50:26.633Z,15.40
2023-05-19T11:51:28.709Z,15.40
2023-05-19T11:52:31.074Z,15.50
2023-05-19T11:53:36.386Z,15.50
2023-05-19T11:54:39.361Z,15.50
2023-05-19T11:55:48.788Z,15.50
2023-05-19T11:56:51.284Z,15.50
2023-05-19T11:58:04.003Z,15.60
2023-05-19T11:59:07.462Z,15.50
2023-05-19T12:00:10.360Z,15.50
2023-05-19T12:01:12.245Z,15.50
2023-05-19T12:02:17.358Z,15.50
2023-05-19T12:03:22.986Z,15.50
2023-05-19T12:04:24.859Z,15.50
2023-05-19T12:05:28.233Z,15.50
2023-05-19T12:06:30.194Z,15.50
2023-05-19T12:07:32.013Z,15.50
2023-05-19T12:08:34.863Z,15.50
2023-05-19T12:09:37.056Z,15.50
2023-05-19T12:10:39.725Z,15.50
2023-05-19T12:11:41.774Z,15.50
2023-05-19T12:12:45.229Z,15.50
2023-05-19T12:13:47.908Z,15.50
2023-05-19T12:14:51.572Z,15.50
2023-05-19T12:15:53.684Z,15.50
2023-05-19T12:16:55.558Z,15.50
2023-05-19T12:18:00.492Z,15.40
2023-05-19T12:19:05.477Z,15.40
2023-05-19T12:20:08.090Z,15.40
2023-05-19T12:21:10.080Z,15.30
2023-05-19T12:22:13.110Z,15.30
2023-05-19T12:23:15.192Z,15.30
2023-05-19T12:24:17.304Z,15.30
2023-05-19T12:25:19.952Z,15.30
2023-05-19T12:26:22.717Z,15.30
2023-05-19T12:27:26.709Z,15.30
2023-05-19T12:28:31.772Z,15.30
2023-05-19T12:29:34.608Z,15.30
2023-05-19T12:30:36.707Z,15.40
2023-05-19T12:31:38.898Z,15.40
2023-05-19T12:32:40.800Z,15.50
2023-05-19T12:33:43.223Z,15.50
2023-05-19T12:34:45.028Z,15.50
2023-05-19T12:35:47.984Z,15.50
2023-05-19T12:36:50.134Z,15.50
2023-05-19T12:37:52.085Z,15.50
2023-05-19T12:38:55.080Z,15.50
2023-05-19T12:39:58.500Z,15.50
2023-05-19T12:41:00.382Z,15.50
2023-05-19T12:42:09.602Z,15.60
2023-05-19T12:43:25.637Z,15.60
2023-05-19T12:44:28.276Z,15.70
2023-05-19T12:45:34.793Z,15.70
2023-05-19T12:46:40.564Z,15.80
2023-05-19T12:47:47.435Z,15.80
2023-05-19T12:48:49.395Z,15.70
2023-05-19T12:50:01.688Z,15.80
2023-05-19T12:51:05.556Z,15.80
2023-05-19T12:52:11.752Z,15.80
2023-05-19T12:53:15.410Z,15.80
2023-05-19T12:54:20.655Z,15.80
2023-05-19T12:55:23.207Z,15.70
2023-05-19T12:56:27.119Z,15.70
2023-05-19T12:57:32.401Z,15.80
2023-05-19T12:58:34.444Z,15.70
2023-05-19T12:59:38.748Z,15.70
2023-05-19T13:00:43.571Z,15.70
2023-05-19T13:01:45.820Z,15.80
2023-05-19T13:02:58.228Z,15.80
2023-05-19T13:04:02.149Z,15.80
2023-05-19T13:05:06.018Z,15.80
2023-05-19T13:06:07.910Z,15.80
2023-05-19T13:07:09.777Z,15.80
2023-05-19T13:08:13.498Z,15.80
2023-05-19T13:09:17.813Z,15.70
2023-05-19T13:10:19.821Z,15.80
2023-05-19T13:11:21.660Z,15.70
2023-05-19T13:12:23.552Z,15.70
2023-05-19T13:13:25.535Z,15.70
2023-05-19T13:14:27.461Z,15.70
2023-05-19T13:15:34.207Z,15.70
2023-05-19T13:16:36.198Z,15.70
2023-05-19T13:17:38.443Z,15.70
2023-05-19T13:18:40.223Z,15.70
2023-05-19T13:19:42.223Z,15.80
2023-05-19T13:20:45.071Z,15.80
2023-05-19T13:21:47.587Z,15.80
2023-05-19T13:22:50.262Z,15.80
2023-05-19T13:23:53.575Z,15.80
2023-05-19T13:24:58.794Z,15.80
2023-05-19T13:26:01.043Z,15.80
2023-05-19T13:27:05.536Z,15.80
2023-05-19T13:28:08.088Z,15.90
2023-05-19T13:29:12.150Z,15.90
2023-05-19T13:30:16.357Z,15.90
2023-05-19T13:31:19.197Z,15.90
2023-05-19T13:32:21.166Z,15.90
2023-05-19T13:33:22.968Z,15.90
2023-05-19T13:34:25.877Z,15.90
2023-05-19T13:35:27.891Z,15.90
2023-05-19T13:36:29.826Z,15.90
2023-05-19T13:37:31.652Z,16.00
2023-05-19T13:38:33.462Z,15.90
2023-05-19T13:39:36.139Z,16.00
2023-05-19T13:40:38.595Z,15.90
2023-05-19T13:41:40.679Z,16.00
2023-05-19T13:42:42.779Z,16.00
2023-05-19T13:43:44.633Z,16.00
2023-05-19T13:44:47.135Z,16.00
2023-05-19T13:45:49.278Z,15.90
2023-05-19T13:46:52.356Z,15.90
2023-05-19T13:47:54.550Z,15.90